createdAt,value
2022-11-24T00:01:08.797Z,4.87
2022-11-24T00:03:36.208Z,4.90
2022-11-24T00:06:15.028Z,4.84
2022-11-24T00:08:44.147Z,4.84
2022-11-24T00:11:16.262Z,4.85
2022-11-24T00:13:44.289Z,4.86
2022-11-24T00:16:11.409Z,4.94
2022-11-24T00:18:39.648Z,4.93
2022-11-24T00:21:07.433Z,4.90
2022-11-24T00:23:36.689Z,4.86
2022-11-24T00:26:13.436Z,4.84
2022-11-24T00:28:41.955Z,4.82
2022-11-24T00:31:24.832Z,4.81
2022-11-24T00:33:54.104Z,4.82
2022-11-24T00:36:22.346Z,4.82
2022-11-24T00:38:56.502Z,4.83
2022-11-24T00:41:25.349Z,4.82
2022-11-24T00:43:52.823Z,4.80
2022-11-24T00:46:20.417Z,4.80
2022-11-24T00:48:47.848Z,4.79
2022-11-24T00:51:16.508Z,4.78
2022-11-24T00:53:43.962Z,4.77
2022-11-24T00:56:11.977Z,4.77
2022-11-24T00:58:40.978Z,4.80
2022-11-24T01:01:13.265Z,4.77
2022-11-24T01:03:42.881Z,4.75
2022-11-24T01:06:12.793Z,4.72
2022-11-24T01:08:41.228Z,4.71
2022-11-24T01:11:17.299Z,4.70
2022-11-24T01:13:47.806Z,4.68
2022-11-24T01:16:18.600Z,4.65
2022-11-24T01:18:46.378Z,4.64
2022-11-24T01:21:14.199Z,4.61
2022-11-24T01:23:41.222Z,4.60
2022-11-24T01:26:10.920Z,4.56
2022-11-24T01:28:44.853Z,4.56
2022-11-24T01:31:14.893Z,4.56
2022-11-24T01:33:42.296Z,4.55
2022-11-24T01:36:09.133Z,4.54
2022-11-24T01:38:36.102Z,4.54
2022-11-24T01:41:08.244Z,4.53
2022-11-24T01:43:36.466Z,4.52
2022-11-24T01:46:29.175Z,4.50
2022-11-24T01:49:16.776Z,4.50
2022-11-24T01:51:51.626Z,4.47
2022-11-24T01:54:30.454Z,4.43
2022-11-24T01:57:17.244Z,4.43
2022-11-24T01:59:49.115Z,4.41
2022-11-24T02:02:22.127Z,4.41
2022-11-24T02:04:50.853Z,4.41
2022-11-24T02:07:19.147Z,4.41
2022-11-24T02:09:53.087Z,4.39
2022-11-24T02:12:23.313Z,4.36
2022-11-24T02:14:53.295Z,4.34
2022-11-24T02:17:20.915Z,4.34
2022-11-24T02:20:10.048Z,4.35
2022-11-24T02:23:15.518Z,4.36
2022-11-24T02:25:45.497Z,4.37
2022-11-24T02:28:17.258Z,4.36
2022-11-24T02:30:44.786Z,4.37
2022-11-24T02:33:12.567Z,4.37
2022-11-24T02:35:41.442Z,4.37
2022-11-24T02:38:13.427Z,4.38
2022-11-24T02:40:44.408Z,4.37
2022-11-24T02:43:16.150Z,4.36
2022-11-24T02:45:43.280Z,4.35
2022-11-24T02:48:10.178Z,4.31
2022-11-24T02:50:37.976Z,4.32
2022-11-24T02:53:04.788Z,4.35
2022-11-24T02:55:31.940Z,4.35
2022-11-24T02:57:58.918Z,4.35
2022-11-24T03:00:26.789Z,4.35
2022-11-24T03:02:53.670Z,4.36
2022-11-24T03:05:20.510Z,4.35
2022-11-24T03:07:47.501Z,4.35
2022-11-24T03:10:14.331Z,4.33
2022-11-24T03:12:41.261Z,4.31
2022-11-24T03:15:08.543Z,4.30
2022-11-24T03:17:35.553Z,4.27
2022-11-24T03:20:04.987Z,4.26
2022-11-24T03:22:32.441Z,4.25
2022-11-24T03:24:59.193Z,4.23
2022-11-24T03:27:26.052Z,4.22
2022-11-24T03:29:52.922Z,4.20
2022-11-24T03:32:19.758Z,4.20
2022-11-24T03:34:46.585Z,4.16
2022-11-24T03:37:13.444Z,4.14
2022-11-24T03:39:40.248Z,4.13
2022-11-24T03:42:07.282Z,4.13
2022-11-24T03:44:34.298Z,4.11
2022-11-24T03:47:01.505Z,4.06
2022-11-24T03:49:28.254Z,4.03
2022-11-24T03:51:55.116Z,4.03
2022-11-24T03:54:22.014Z,4.03
2022-11-24T03:56:48.817Z,3.99
2022-11-24T03:59:15.828Z,3.97
2022-11-24T04:01:42.692Z,3.96
2022-11-24T04:04:11.796Z,3.95
2022-11-24T04:06:39.008Z,3.96
2022-11-24T04:09:06.106Z,3.95
2022-11-24T04:11:32.968Z,3.96
2022-11-24T04:13:59.730Z,3.96
2022-11-24T04:16:26.709Z,3.97
2022-11-24T04:18:53.919Z,3.96
2022-11-24T04:21:21.222Z,3.99
2022-11-24T04:23:48.060Z,3.96
2022-11-24T04:26:15.031Z,3.97
2022-11-24T04:28:42.721Z,3.97
2022-11-24T04:31:09.785Z,3.97
2022-11-24T04:33:36.669Z,3.97
2022-11-24T04:36:04.060Z,3.96
2022-11-24T04:39:24.932Z,3.97
2022-11-24T04:41:18.363Z,3.96
2022-11-24T04:43:45.120Z,3.99
2022-11-24T04:46:12.088Z,3.99
2022-11-24T04:48:38.921Z,4.00
2022-11-24T04:51:06.708Z,4.00
2022-11-24T04:53:33.664Z,4.00
2022-11-24T04:56:05.407Z,3.98
2022-11-24T04:58:32.893Z,3.99
2022-11-24T05:01:00.096Z,4.00
2022-11-24T05:03:26.851Z,3.99
2022-11-24T05:05:53.750Z,3.98
2022-11-24T05:08:20.473Z,3.98
2022-11-24T05:10:47.276Z,3.97
2022-11-24T05:13:14.618Z,3.95
2022-11-24T05:15:42.403Z,3.97
2022-11-24T05:18:12.684Z,3.95
2022-11-24T05:20:39.496Z,3.94
2022-11-24T05:23:08.492Z,3.95
2022-11-24T05:25:35.908Z,3.94
2022-11-24T05:28:04.164Z,3.91
2022-11-24T05:30:32.479Z,3.90
2022-11-24T05:32:59.288Z,3.94
2022-11-24T05:35:26.184Z,3.96
2022-11-24T05:37:53.857Z,3.98
2022-11-24T05:40:20.556Z,4.00
2022-11-24T05:42:48.368Z,4.01
2022-11-24T05:45:18.138Z,4.02
2022-11-24T05:47:45.532Z,4.06
2022-11-24T05:50:14.909Z,4.07
2022-11-24T05:52:42.045Z,4.06
2022-11-24T05:55:10.460Z,4.05
2022-11-24T05:57:37.473Z,4.07
2022-11-24T06:00:08.808Z,4.07
2022-11-24T06:02:41.936Z,4.08
2022-11-24T06:05:09.168Z,4.09
2022-11-24T06:07:36.246Z,4.15
2022-11-24T06:10:05.163Z,4.14
2022-11-24T06:12:33.710Z,4.15
2022-11-24T06:15:00.434Z,4.16
2022-11-24T06:17:27.501Z,4.14
2022-11-24T06:19:54.251Z,4.16
2022-11-24T06:22:21.234Z,4.19
2022-11-24T06:24:48.109Z,4.21
2022-11-24T06:27:14.869Z,4.18
2022-11-24T06:29:41.805Z,4.25
2022-11-24T06:32:09.287Z,4.22
2022-11-24T06:34:36.970Z,4.21
2022-11-24T06:37:04.255Z,4.25
2022-11-24T06:39:31.059Z,4.26
2022-11-24T06:41:57.865Z,4.26
2022-11-24T06:44:24.808Z,4.28
2022-11-24T06:46:51.706Z,4.30
2022-11-24T06:49:18.998Z,4.35
2022-11-24T06:51:46.030Z,4.39
2022-11-24T06:54:18.328Z,4.43
2022-11-24T06:56:45.296Z,4.47
2022-11-24T06:59:20.709Z,4.49
2022-11-24T07:01:48.115Z,4.53
2022-11-24T07:04:15.608Z,4.56
2022-11-24T07:06:43.446Z,4.62
2022-11-24T07:09:11.898Z,4.64
2022-11-24T07:11:40.402Z,4.67
2022-11-24T07:14:07.738Z,4.71
2022-11-24T07:16:34.627Z,4.73
2022-11-24T07:19:01.504Z,4.75
2022-11-24T07:21:29.549Z,4.79
2022-11-24T07:23:58.050Z,4.81
2022-11-24T07:26:26.232Z,4.88
2022-11-24T07:28:53.060Z,4.88
2022-11-24T07:31:22.253Z,4.91
2022-11-24T07:33:50.250Z,4.94
2022-11-24T07:36:17.480Z,4.96
2022-11-24T07:38:44.319Z,4.98
2022-11-24T07:41:13.462Z,4.97
2022-11-24T07:43:41.079Z,5.01
2022-11-24T07:46:11.799Z,5.02
2022-11-24T07:48:39.099Z,5.05
2022-11-24T07:51:06.798Z,5.08
2022-11-24T07:53:34.361Z,5.08
2022-11-24T07:56:03.469Z,5.12
2022-11-24T07:58:33.438Z,5.14
2022-11-24T08:01:08.785Z,5.14
2022-11-24T08:03:35.945Z,5.16
2022-11-24T08:08:49.744Z,5.15
2022-11-24T08:11:18.078Z,5.13
2022-11-24T08:13:44.969Z,5.10
2022-11-24T08:16:14.188Z,5.11
2022-11-24T08:18:42.665Z,5.11
2022-11-24T08:21:13.733Z,5.09
2022-11-24T08:23:41.116Z,5.06
2022-11-24T08:26:13.996Z,5.05
2022-11-24T08:28:40.867Z,5.04
2022-11-24T08:31:18.772Z,5.03
2022-11-24T08:33:46.894Z,5.01
2022-11-24T08:36:16.646Z,5.01
2022-11-24T08:38:44.496Z,5.00
2022-11-24T08:41:14.617Z,4.99
2022-11-24T08:43:41.746Z,4.98
2022-11-24T08:46:12.277Z,4.98
2022-11-24T08:48:39.642Z,4.97
2022-11-24T08:51:11.538Z,4.96
2022-11-24T08:53:39.247Z,4.96
2022-11-24T08:56:08.193Z,4.99
2022-11-24T08:58:35.711Z,5.00
2022-11-24T09:01:05.541Z,4.99
2022-11-24T09:03:32.662Z,4.99
2022-11-24T09:05:59.458Z,5.02
2022-11-24T09:08:26.478Z,5.06
2022-11-24T09:10:53.262Z,5.02
2022-11-24T09:13:20.069Z,5.03
2022-11-24T09:15:46.951Z,5.03
2022-11-24T09:18:13.773Z,5.04
2022-11-24T09:23:25.014Z,5.14
2022-11-24T09:25:51.972Z,5.19
2022-11-24T09:28:18.804Z,5.19
2022-11-24T09:30:45.571Z,5.23
2022-11-24T09:33:12.364Z,5.22
2022-11-24T09:35:39.078Z,5.24
2022-11-24T09:38:05.935Z,5.27
2022-11-24T09:40:33.240Z,5.31
2022-11-24T09:43:06.655Z,5.29
2022-11-24T09:46:05.585Z,5.30
2022-11-24T09:48:54.729Z,5.28
2022-11-24T09:51:25.366Z,5.31
2022-11-24T09:53:59.209Z,5.32
2022-11-24T09:56:33.435Z,5.37
2022-11-24T09:59:11.023Z,5.39
2022-11-24T10:01:41.845Z,5.48
2022-11-24T10:04:18.860Z,5.46
2022-11-24T10:07:01.161Z,5.50
2022-11-24T10:09:49.162Z,5.51
2022-11-24T10:12:49.098Z,5.56
2022-11-24T10:15:53.293Z,5.58
2022-11-24T10:18:46.471Z,5.63
2022-11-24T10:21:26.343Z,5.66
2022-11-24T10:24:27.091Z,5.68
2022-11-24T10:27:02.511Z,5.73
2022-11-24T10:29:29.297Z,5.80
2022-11-24T10:31:57.009Z,5.85
2022-11-24T10:34:37.305Z,5.92
2022-11-24T10:37:18.013Z,5.95
2022-11-24T10:39:59.716Z,5.99
2022-11-24T10:42:28.867Z,6.00
2022-11-24T10:45:08.889Z,6.03
2022-11-24T10:47:35.965Z,6.04
2022-11-24T10:50:06.329Z,6.04
2022-11-24T10:52:41.387Z,6.07
2022-11-24T10:55:08.519Z,6.09
2022-11-24T10:57:39.317Z,6.10
2022-11-24T11:00:31.150Z,6.11
2022-11-24T11:03:34.011Z,6.11
2022-11-24T11:06:12.224Z,6.12
2022-11-24T11:08:40.729Z,6.13
2022-11-24T11:11:20.762Z,6.14
2022-11-24T11:13:59.775Z,6.18
2022-11-24T11:16:40.571Z,6.18
2022-11-24T11:20:01.558Z,6.18
2022-11-24T11:22:32.506Z,6.18
2022-11-24T11:25:33.738Z,6.20
2022-11-24T11:28:19.279Z,6.19
2022-11-24T11:31:16.633Z,6.21
2022-11-24T11:34:03.727Z,6.35
2022-11-24T11:36:41.317Z,6.27
2022-11-24T11:39:22.270Z,6.24
2022-11-24T11:41:53.861Z,6.22
2022-11-24T11:44:23.653Z,6.25
2022-11-24T11:46:50.482Z,6.27
2022-11-24T11:49:17.512Z,6.29
2022-11-24T11:55:11.424Z,6.33
2022-11-24T11:57:58.374Z,6.34
2022-11-24T12:00:25.182Z,6.34
2022-11-24T12:03:12.548Z,6.35
2022-11-24T12:05:51.168Z,6.35
2022-11-24T12:09:03.248Z,6.37
2022-11-24T12:11:43.008Z,6.41
2022-11-24T12:14:30.713Z,6.41
2022-11-24T12:17:04.640Z,6.44
2022-11-24T12:19:49.035Z,6.44
2022-11-24T12:22:33.567Z,6.47
2022-11-24T12:25:35.428Z,6.48
2022-11-24T12:28:06.161Z,6.49
2022-11-24T12:30:59.186Z,6.51
2022-11-24T12:33:55.366Z,6.48
2022-11-24T12:36:53.248Z,6.51
2022-11-24T12:39:32.564Z,6.55
2022-11-24T12:42:38.091Z,6.59
2022-11-24T12:45:13.209Z,6.61
2022-11-24T12:47:58.193Z,6.61
2022-11-24T12:50:29.245Z,6.57
2022-11-24T12:53:19.261Z,6.56
2022-11-24T12:55:47.108Z,6.57
2022-11-24T12:58:21.044Z,6.57
2022-11-24T13:01:21.736Z,6.58
2022-11-24T13:03:56.256Z,6.57
2022-11-24T13:06:26.325Z,6.62
2022-11-24T13:08:53.320Z,6.64
2022-11-24T13:11:23.135Z,6.65
2022-11-24T13:14:14.957Z,6.68
2022-11-24T13:17:33.729Z,6.68
2022-11-24T13:20:20.259Z,6.68
2022-11-24T13:22:56.792Z,6.65
2022-11-24T13:25:24.668Z,6.63
2022-11-24T13:28:05.771Z,6.62
2022-11-24T13:30:35.173Z,6.62
2022-11-24T13:33:15.825Z,6.63
2022-11-24T13:36:03.471Z,6.65
2022-11-24T13:38:43.527Z,6.66
2022-11-24T13:41:32.202Z,6.65
2022-11-24T13:44:14.013Z,6.64
2022-11-24T13:47:05.572Z,6.63
2022-11-24T13:49:40.800Z,6.63
2022-11-24T13:52:44.618Z,6.61
2022-11-24T13:55:14.332Z,6.58
2022-11-24T13:57:45.476Z,6.59
2022-11-24T14:00:37.071Z,6.59
2022-11-24T14:03:29.921Z,6.58
2022-11-24T14:05:57.669Z,6.59
2022-11-24T14:08:28.310Z,6.58
2022-11-24T14:10:57.632Z,6.56
2022-11-24T14:13:27.258Z,6.57
2022-11-24T14:16:09.080Z,6.57
2022-11-24T14:18:38.581Z,6.56
2022-11-24T14:21:20.660Z,6.52
2022-11-24T14:23:57.652Z,6.50
2022-11-24T14:26:33.912Z,6.49
2022-11-24T14:29:15.472Z,6.45
2022-11-24T14:31:52.164Z,6.42
2022-11-24T14:34:21.909Z,6.47
2022-11-24T14:36:49.773Z,6.46
2022-11-24T14:39:18.745Z,6.41
2022-11-24T14:42:07.735Z,6.40
2022-11-24T14:44:35.052Z,6.42
2022-11-24T14:47:24.505Z,6.51
2022-11-24T14:49:55.432Z,6.50
2022-11-24T14:52:23.775Z,6.52
2022-11-24T14:55:07.520Z,6.53
2022-11-24T14:57:44.656Z,6.53
2022-11-24T15:00:25.278Z,6.53
2022-11-24T15:03:13.339Z,6.55
2022-11-24T15:05:52.150Z,6.51
2022-11-24T15:08:19.086Z,6.53
2022-11-24T15:10:46.701Z,6.52
2022-11-24T15:13:21.164Z,6.53
2022-11-24T15:16:03.188Z,6.52
2022-11-24T15:18:42.885Z,6.51
2022-11-24T15:21:15.744Z,6.50
2022-11-24T15:24:06.386Z,6.54
2022-11-24T15:26:36.922Z,6.56
2022-11-24T15:29:09.430Z,6.51
2022-11-24T15:31:37.818Z,6.50
2022-11-24T15:34:04.816Z,6.56
2022-11-24T15:36:32.065Z,6.59
2022-11-24T15:38:59.095Z,6.60
2022-11-24T15:41:31.985Z,6.61
2022-11-24T15:43:59.395Z,6.59
2022-11-24T15:46:31.384Z,6.60
2022-11-24T15:48:58.327Z,6.60
2022-11-24T15:51:26.436Z,6.59
2022-11-24T15:54:00.273Z,6.56
2022-11-24T15:56:36.016Z,6.54
2022-11-24T15:59:04.146Z,6.53
2022-11-24T16:01:33.870Z,6.50
2022-11-24T16:04:03.285Z,6.51
2022-11-24T16:06:30.162Z,6.49
2022-11-24T16:08:57.039Z,6.47
2022-11-24T16:11:25.505Z,6.42
2022-11-24T16:13:54.204Z,6.34
2022-11-24T16:16:23.489Z,6.30
2022-11-24T16:18:51.291Z,6.33
2022-11-24T16:21:18.354Z,6.29
2022-11-24T16:23:45.110Z,6.36
2022-11-24T16:26:12.223Z,6.41
2022-11-24T16:28:39.419Z,6.45
2022-11-24T16:31:06.431Z,6.48
2022-11-24T16:33:33.280Z,6.52
2022-11-24T16:36:00.689Z,6.53
2022-11-24T16:38:28.270Z,6.54
2022-11-24T16:40:56.581Z,6.55
2022-11-24T16:43:23.697Z,6.53
2022-11-24T16:46:18.051Z,6.52
2022-11-24T16:48:46.478Z,6.49
2022-11-24T16:51:14.562Z,6.49
2022-11-24T16:53:41.690Z,6.53
2022-11-24T16:56:09.657Z,6.54
2022-11-24T16:58:40.920Z,6.55
2022-11-24T17:01:13.422Z,6.56
2022-11-24T17:03:41.471Z,6.57
2022-11-24T17:06:11.597Z,6.56
2022-11-24T17:08:40.555Z,6.57
2022-11-24T17:11:10.073Z,6.56
2022-11-24T17:13:37.808Z,6.52
2022-11-24T17:16:13.886Z,6.56
2022-11-24T17:18:42.024Z,6.53
2022-11-24T17:21:17.237Z,6.52
2022-11-24T17:23:45.235Z,6.50
2022-11-24T17:26:15.605Z,6.52
2022-11-24T17:28:43.757Z,6.53
2022-11-24T17:31:26.504Z,6.54
2022-11-24T17:33:56.488Z,6.57
2022-11-24T17:36:24.017Z,6.57
2022-11-24T17:38:51.519Z,6.55
2022-11-24T17:41:22.599Z,6.56
2022-11-24T17:43:55.160Z,6.56
2022-11-24T17:46:27.301Z,6.58
2022-11-24T17:48:56.277Z,6.56
2022-11-24T17:51:26.398Z,6.59
2022-11-24T17:53:55.488Z,6.64
2022-11-24T17:56:25.268Z,6.71
2022-11-24T17:58:54.341Z,6.74
2022-11-24T18:01:22.859Z,6.75
2022-11-24T18:03:53.836Z,6.77
2022-11-24T18:06:22.432Z,6.79
2022-11-24T18:08:50.077Z,6.81
2022-11-24T18:11:25.913Z,6.82
2022-11-24T18:14:00.783Z,6.79
2022-11-24T18:16:35.126Z,6.81
2022-11-24T18:19:09.078Z,6.85
2022-11-24T18:21:42.115Z,6.89
2022-11-24T18:24:13.883Z,6.89
2022-11-24T18:26:44.292Z,6.89
2022-11-24T18:29:12.682Z,6.91
2022-11-24T18:31:39.805Z,6.92
2022-11-24T18:34:07.374Z,6.92
2022-11-24T18:36:35.936Z,6.99
2022-11-24T18:39:08.570Z,6.97
2022-11-24T18:41:37.285Z,6.99
2022-11-24T18:44:05.613Z,6.97
2022-11-24T18:46:33.882Z,6.96
2022-11-24T18:49:03.030Z,6.95
2022-11-24T18:51:31.077Z,6.95
2022-11-24T18:53:58.863Z,6.95
2022-11-24T18:56:27.360Z,6.92
2022-11-24T18:58:57.328Z,6.89
2022-11-24T19:01:28.798Z,6.88
2022-11-24T19:04:01.448Z,6.84
2022-11-24T19:06:32.756Z,6.82
2022-11-24T19:09:07.199Z,6.84
2022-11-24T19:11:38.046Z,6.81
2022-11-24T19:14:09.530Z,6.80
2022-11-24T19:16:41.270Z,6.80
2022-11-24T19:19:12.447Z,6.78
2022-11-24T19:21:41.199Z,6.77
2022-11-24T19:24:11.309Z,6.76
2022-11-24T19:26:40.690Z,6.75
2022-11-24T19:29:09.424Z,6.80
2022-11-24T19:31:39.716Z,6.78
2022-11-24T19:34:07.885Z,6.82
2022-11-24T19:36:35.841Z,6.81
2022-11-24T19:39:03.417Z,6.80
2022-11-24T19:41:32.896Z,6.80
2022-11-24T19:44:00.584Z,6.81
2022-11-24T19:46:29.794Z,6.82
2022-11-24T19:49:01.577Z,6.85
2022-11-24T19:51:40.803Z,6.83
2022-11-24T19:54:12.810Z,6.84
2022-11-24T19:56:40.633Z,6.85
2022-11-24T19:59:08.956Z,6.85
2022-11-24T20:01:40.321Z,6.81
2022-11-24T20:04:11.434Z,6.83
2022-11-24T20:06:41.578Z,6.83
2022-11-24T20:09:12.826Z,6.81
2022-11-24T20:11:41.993Z,6.79
2022-11-24T20:14:16.991Z,6.82
2022-11-24T20:16:44.887Z,6.82
2022-11-24T20:19:14.852Z,6.82
2022-11-24T20:21:44.301Z,6.81
2022-11-24T20:24:15.197Z,6.83
2022-11-24T20:26:47.420Z,6.87
2022-11-24T20:29:17.740Z,6.87
2022-11-24T20:31:54.880Z,6.86
2022-11-24T20:34:25.834Z,6.87
2022-11-24T20:36:53.561Z,6.87
2022-11-24T20:39:24.500Z,6.88
2022-11-24T20:41:53.211Z,6.87
2022-11-24T20:44:22.209Z,6.85
2022-11-24T20:46:52.052Z,6.86
2022-11-24T20:49:20.506Z,6.80
2022-11-24T20:51:48.902Z,6.78
2022-11-24T20:54:18.863Z,6.76
2022-11-24T20:56:48.072Z,6.75
2022-11-24T20:59:18.393Z,6.72
2022-11-24T21:01:46.836Z,6.71
2022-11-24T21:04:20.224Z,6.75
2022-11-24T21:06:48.389Z,6.75
2022-11-24T21:09:16.093Z,6.73
2022-11-24T21:11:43.697Z,6.74
2022-11-24T21:14:11.968Z,6.74
2022-11-24T21:16:42.520Z,6.89
2022-11-24T21:19:15.888Z,6.99
2022-11-24T21:21:44.843Z,6.89
2022-11-24T21:24:14.750Z,6.83
2022-11-24T21:26:43.878Z,6.80
2022-11-24T21:29:15.335Z,6.78
2022-11-24T21:31:42.695Z,6.77
2022-11-24T21:34:14.349Z,6.75
2022-11-24T21:36:41.746Z,6.75
2022-11-24T21:39:10.728Z,6.76
2022-11-24T21:41:38.375Z,6.79
2022-11-24T21:44:05.260Z,6.78
2022-11-24T21:46:32.123Z,6.78
2022-11-24T21:48:58.920Z,6.80
2022-11-24T21:51:25.982Z,6.79
2022-11-24T21:53:53.791Z,6.79
2022-11-24T21:56:22.729Z,6.83
2022-11-24T21:58:55.510Z,6.80
2022-11-24T22:01:25.109Z,6.80
2022-11-24T22:03:52.043Z,6.80
2022-11-24T22:06:20.801Z,6.82
2022-11-24T22:08:49.054Z,6.82
2022-11-24T22:11:24.516Z,6.80
2022-11-24T22:13:52.775Z,6.78
2022-11-24T22:16:22.461Z,6.76
2022-11-24T22:18:50.312Z,6.79
2022-11-24T22:21:20.641Z,6.78
2022-11-24T22:23:51.634Z,6.77
2022-11-24T22:26:21.425Z,6.79
2022-11-24T22:28:49.512Z,6.76
2022-11-24T22:31:31.016Z,6.78
2022-11-24T22:33:59.443Z,6.77
2022-11-24T22:36:29.370Z,6.75
2022-11-24T22:38:58.465Z,6.75
2022-11-24T22:41:26.133Z,6.71
2022-11-24T22:43:53.656Z,6.70
2022-11-24T22:46:23.357Z,6.74
2022-11-24T22:48:52.375Z,6.76
2022-11-24T22:51:23.574Z,6.71
2022-11-24T22:53:56.876Z,6.75
2022-11-24T22:56:25.225Z,6.76
2022-11-24T22:58:51.935Z,6.70
2022-11-24T23:01:21.807Z,6.75
2022-11-24T23:03:49.738Z,6.76
2022-11-24T23:06:20.481Z,6.74
2022-11-24T23:08:50.168Z,6.72
2022-11-24T23:11:36.583Z,6.72
2022-11-24T23:14:07.633Z,6.73
2022-11-24T23:16:34.603Z,6.74
2022-11-24T23:19:01.400Z,6.72
2022-11-24T23:21:30.800Z,6.72
2022-11-24T23:24:22.910Z,6.71
2022-11-24T23:26:49.741Z,6.74
2022-11-24T23:29:16.469Z,6.75
2022-11-24T23:31:44.649Z,6.78
2022-11-24T23:34:11.641Z,6.78
2022-11-24T23:36:39.492Z,6.78
2022-11-24T23:39:09.192Z,6.77
2022-11-24T23:41:36.221Z,6.76
2022-11-24T23:44:03.293Z,6.77
2022-11-24T23:46:30.506Z,6.71
2022-11-24T23:48:57.405Z,6.74
2022-11-24T23:51:27.401Z,6.74
2022-11-24T23:53:55.852Z,6.75
2022-11-24T23:56:25.313Z,6.77
2022-11-24T23:58:52.220Z,6.76
